Time;durP1;ratioP1;P1;durP2;ratioP2;P2;SDS_P1;SDS_P2;PMS_P1;PMS_P2;Temp;Humidity;BMP_temperature;BMP_pressure;BME280_temperature;BME280_humidity;BME280_pressure;Samples;Min_cycle;Max_cycle;Signal;HPM_P1;HPM_P2
2022/08/22 00:02:20;;;;;;;4.57;4.17;;;20.90;39.60;;;;;;10392923;28;20249;-78
2022/08/22 00:07:35;;;;;;;4.37;3.97;;;20.90;39.20;;;;;;10398453;28;20229;-78
2022/08/22 00:12:46;;;;;;;4.47;4.07;;;20.80;39.40;;;;;;10400479;28;20220;-79
2022/08/22 00:17:59;;;;;;;4.57;4.27;;;20.80;39.40;;;;;;10401262;28;20233;-79
2022/08/22 00:23:16;;;;;;;4.00;3.80;;;20.80;39.50;;;;;;10399795;28;20222;-78
2022/08/22 00:28:25;;;;;;;4.00;3.70;;;20.70;39.40;;;;;;10400685;28;20226;-79
2022/08/22 00:33:35;;;;;;;4.10;3.80;;;20.70;39.30;;;;;;10389587;28;20230;-79
2022/08/22 00:38:44;;;;;;;3.97;3.70;;;20.60;39.40;;;;;;10394687;28;20233;-79
2022/08/22 00:44:22;;;;;;;4.00;3.70;;;20.60;39.60;;;;;;10394692;28;20225;-79
2022/08/22 00:50:03;;;;;;;3.93;3.63;;;20.60;39.70;;;;;;10366173;28;20226;-79
2022/08/22 00:55:30;;;;;;;3.50;3.20;;;20.60;39.70;;;;;;10402140;28;20217;-78
2022/08/22 01:00:43;;;;;;;3.33;3.13;;;20.50;39.80;;;;;;10393395;28;20230;-79
2022/08/22 01:06:03;;;;;;;3.53;3.33;;;20.50;39.90;;;;;;10400302;28;20234;-79
2022/08/22 01:11:30;;;;;;;4.00;3.70;;;20.50;40.20;;;;;;10405193;28;20229;-78
2022/08/22 01:16:55;;;;;;;3.73;3.53;;;20.50;40.20;;;;;;10402120;28;20230;-79
2022/08/22 01:22:40;;;;;;;4.50;4.10;;;20.40;40.10;;;;;;10400618;28;20227;-79
2022/08/22 01:28:17;;;;;;;4.10;3.80;;;20.40;40.30;;;;;;10391778;28;20217;-79
2022/08/22 01:34:15;;;;;;;4.23;3.90;;;20.40;40.20;;;;;;10405608;28;20231;-78
2022/08/22 01:39:43;;;;;;;4.10;3.80;;;20.30;40.10;;;;;;10413221;28;20848;-79
2022/08/22 01:45:09;;;;;;;4.33;4.10;;;20.30;40.40;;;;;;10416504;28;20284;-79
2022/08/22 01:50:20;;;;;;;4.83;4.43;;;20.20;40.50;;;;;;10417374;28;20308;-79
2022/08/22 01:55:30;;;;;;;4.20;3.80;;;20.20;40.60;;;;;;10421766;28;20226;-79
2022/08/22 02:00:54;;;;;;;3.93;3.63;;;20.10;40.10;;;;;;10419303;28;20245;-79
2022/08/22 02:06:06;;;;;;;4.20;3.90;;;20.00;40.50;;;;;;10424711;28;20244;-79
2022/08/22 02:11:12;;;;;;;4.33;3.93;;;20.00;40.90;;;;;;10423520;28;20245;-79
2022/08/22 02:16:24;;;;;;;3.87;3.60;;;20.00;40.50;;;;;;10428096;28;20257;-79
2022/08/22 02:21:44;;;;;;;4.50;4.13;;;20.00;41.00;;;;;;10424393;28;20491;-80
2022/08/22 02:27:03;;;;;;;4.20;3.90;;;20.10;41.00;;;;;;10423695;28;20252;-79
2022/08/22 02:32:16;;;;;;;4.37;4.07;;;20.00;41.00;;;;;;10423279;28;20222;-79
2022/08/22 02:37:32;;;;;;;4.57;4.27;;;20.10;40.90;;;;;;10428324;28;20258;-79
2022/08/22 02:42:42;;;;;;;4.40;4.10;;;20.10;41.00;;;;;;10429620;28;20308;-79
2022/08/22 02:47:56;;;;;;;4.07;3.77;;;20.00;40.90;;;;;;10427174;28;20651;-79
2022/08/22 02:53:14;;;;;;;4.10;3.80;;;20.00;40.80;;;;;;10427384;28;20222;-80
2022/08/22 02:58:26;;;;;;;3.87;3.63;;;20.00;40.80;;;;;;10427641;28;20253;-79
2022/08/22 03:03:36;;;;;;;3.80;3.50;;;20.00;40.80;;;;;;10425830;28;20264;-79
2022/08/22 03:08:59;;;;;;;4.07;3.77;;;20.00;40.70;;;;;;10430347;28;20261;-79
2022/08/22 03:14:07;;;;;;;4.20;3.90;;;19.90;40.70;;;;;;10427016;28;20304;-79
2022/08/22 03:19:18;;;;;;;4.27;3.97;;;19.90;40.80;;;;;;10428019;28;20285;-79
2022/08/22 03:24:31;;;;;;;4.70;4.30;;;19.90;40.80;;;;;;10425097;28;20309;-79
2022/08/22 03:29:39;;;;;;;5.80;4.00;;;19.80;40.60;;;;;;10425098;28;20253;-79
2022/08/22 03:35:02;;;;;;;3.67;3.47;;;19.80;40.50;;;;;;10430582;28;20251;-79
2022/08/22 03:40:24;;;;;;;3.90;3.60;;;19.70;40.60;;;;;;10424146;28;20317;-79
2022/08/22 03:46:17;;;;;;;4.13;3.83;;;19.70;40.70;;;;;;10428655;28;20222;-79
2022/08/22 03:51:32;;;;;;;3.73;3.20;;;19.70;40.70;;;;;;10423332;28;20305;-79
2022/08/22 03:57:08;;;;;;;2.97;2.77;;;19.60;40.60;;;;;;10425819;28;20323;-79
2022/08/22 04:02:26;;;;;;;2.83;2.63;;;19.50;40.40;;;;;;10424546;28;20260;-79
2022/08/22 04:08:13;;;;;;;4.73;2.70;;;19.50;40.50;;;;;;10424891;28;20279;-79
2022/08/22 04:13:37;;;;;;;2.80;2.60;;;19.40;40.40;;;;;;10425306;28;20256;-79
2022/08/22 04:19:21;;;;;;;2.43;2.33;;;19.30;40.40;;;;;;10423726;28;20249;-79
2022/08/22 04:24:42;;;;;;;3.00;2.80;;;19.20;40.10;;;;;;10423660;28;20320;-79
2022/08/22 04:29:58;;;;;;;3.10;2.90;;;19.10;40.50;;;;;;10421475;28;20307;-79
2022/08/22 04:35:08;;;;;;;3.20;3.00;;;19.10;40.70;;;;;;10424571;28;20904;-79
2022/08/22 04:40:18;;;;;;;3.30;3.00;;;19.00;40.60;;;;;;10424070;28;20225;-79
2022/08/22 04:45:26;;;;;;;3.60;3.30;;;19.00;40.70;;;;;;10423353;28;20234;-79
2022/08/22 04:50:37;;;;;;;3.90;3.63;;;19.00;40.70;;;;;;10422915;28;20312;-79
2022/08/22 04:55:56;;;;;;;4.53;3.33;;;19.00;41.00;;;;;;10418729;28;20225;-79
2022/08/22 05:01:12;;;;;;;3.20;3.00;;;19.00;41.20;;;;;;10421370;28;20289;-79
2022/08/22 05:06:20;;;;;;;4.77;3.43;;;18.90;41.40;;;;;;10420936;28;20237;-79
2022/08/22 05:11:24;;;;;;;3.37;3.10;;;18.90;41.50;;;;;;10424520;28;20260;-79
2022/08/22 05:16:33;;;;;;;3.37;3.17;;;18.90;41.40;;;;;;10426790;28;20256;-79
2022/08/22 05:21:42;;;;;;;3.57;3.27;;;18.90;41.50;;;;;;10431885;28;20267;-79
2022/08/22 05:26:52;;;;;;;3.50;3.20;;;19.00;41.90;;;;;;10431335;28;20309;-80
2022/08/22 05:32:01;;;;;;;3.43;3.23;;;19.00;42.00;;;;;;10427954;28;20245;-79
2022/08/22 05:37:13;;;;;;;3.13;2.93;;;19.00;42.20;;;;;;10428983;28;20271;-79
2022/08/22 05:42:22;;;;;;;3.43;3.13;;;19.00;42.20;;;;;;10429361;28;20298;-79
2022/08/22 05:47:35;;;;;;;4.00;3.70;;;18.90;42.10;;;;;;10429798;28;20260;-79
2022/08/22 05:52:59;;;;;;;3.90;3.60;;;19.00;42.50;;;;;;10428400;28;20285;-79
2022/08/22 05:58:20;;;;;;;4.27;3.97;;;19.00;42.90;;;;;;10425987;28;20233;-79
2022/08/22 06:03:28;;;;;;;4.33;3.93;;;19.00;42.70;;;;;;10429186;28;20317;-79
2022/08/22 06:08:37;;;;;;;5.17;4.77;;;19.10;42.90;;;;;;10428972;28;20252;-79
2022/08/22 06:13:45;;;;;;;5.67;5.13;;;19.10;43.40;;;;;;10426109;28;20324;-79
2022/08/22 06:18:51;;;;;;;5.10;4.80;;;19.10;43.50;;;;;;10429627;28;20243;-79
2022/08/22 06:23:58;;;;;;;5.53;5.13;;;19.20;43.60;;;;;;10424958;28;20284;-79
2022/08/22 06:29:03;;;;;;;5.40;5.00;;;19.30;44.10;;;;;;10421006;28;20241;-80
2022/08/22 06:34:15;;;;;;;5.67;5.03;;;19.30;43.80;;;;;;10424174;28;20602;-80
2022/08/22 06:39:23;;;;;;;5.87;5.20;;;19.50;45.70;;;;;;10425938;28;20238;-80
2022/08/22 06:44:30;;;;;;;6.07;5.57;;;19.50;44.60;;;;;;10425246;28;20316;-80
2022/08/22 06:49:35;;;;;;;5.30;4.90;;;19.60;44.60;;;;;;10424875;28;20252;-80
2022/08/22 06:54:46;;;;;;;6.03;5.53;;;19.70;44.40;;;;;;10424023;28;20236;-80
2022/08/22 06:59:49;;;;;;;6.10;5.70;;;19.70;45.00;;;;;;10425049;28;20315;-80
2022/08/22 07:04:53;;;;;;;5.87;5.37;;;19.80;44.40;;;;;;10427213;28;20309;-80
2022/08/22 07:09:57;;;;;;;5.73;5.13;;;19.90;44.50;;;;;;10427084;28;20226;-80
2022/08/22 07:15:09;;;;;;;5.30;4.80;;;20.00;44.80;;;;;;10422801;28;20294;-80
2022/08/22 07:20:22;;;;;;;5.20;4.77;;;20.10;44.00;;;;;;10421600;28;20234;-80
2022/08/22 07:25:28;;;;;;;5.63;4.13;;;20.20;44.30;;;;;;10424962;28;20281;-80
2022/08/22 07:30:44;;;;;;;5.67;4.13;;;20.40;43.40;;;;;;10422916;28;20237;-80
2022/08/22 07:35:53;;;;;;;4.77;4.07;;;20.50;43.00;;;;;;10426628;28;20229;-80
2022/08/22 07:41:06;;;;;;;4.47;3.60;;;20.60;43.20;;;;;;10424384;28;20747;-80
2022/08/22 07:46:24;;;;;;;4.00;3.63;;;20.80;42.90;;;;;;10427827;28;20224;-80
2022/08/22 07:51:34;;;;;;;3.90;3.60;;;21.00;42.80;;;;;;10427248;28;20289;-80
2022/08/22 07:56:45;;;;;;;4.87;3.33;;;21.20;42.60;;;;;;10425546;28;20283;-80
2022/08/22 08:01:52;;;;;;;3.60;3.30;;;21.40;42.20;;;;;;10421683;28;20245;-80
2022/08/22 08:06:59;;;;;;;3.80;3.00;;;21.60;42.20;;;;;;10425107;28;20297;-80
2022/08/22 08:12:05;;;;;;;4.10;2.83;;;21.90;42.40;;;;;;10406992;28;20510;-81
2022/08/22 08:17:17;;;;;;;4.03;3.23;;;22.10;41.70;;;;;;10388019;28;20308;-78
2022/08/22 08:22:25;;;;;;;5.00;2.70;;;22.40;40.70;;;;;;10387042;28;20233;-77
2022/08/22 08:32:58;;;;;;;3.30;2.80;;;23.10;39.20;;;;;;10364042;28;20230;-77
2022/08/22 08:38:26;;;;;;;2.97;2.20;;;23.30;39.40;;;;;;10398104;28;20225;-80
2022/08/22 08:43:42;;;;;;;4.00;2.40;;;23.60;38.60;;;;;;10397126;28;20229;-79
2022/08/22 08:49:15;;;;;;;3.10;2.60;;;23.90;38.00;;;;;;10397213;28;20228;-78
2022/08/22 08:54:54;;;;;;;2.40;2.20;;;24.10;37.20;;;;;;10397424;28;20580;-78
2022/08/22 09:00:05;;;;;;;2.73;2.30;;;24.40;35.30;;;;;;10389579;28;20225;-77
2022/08/22 09:05:39;;;;;;;3.33;2.10;;;24.60;36.00;;;;;;10396118;28;20222;-79
2022/08/22 09:11:04;;;;;;;3.03;1.97;;;24.80;35.70;;;;;;10406798;28;20247;-80
2022/08/22 09:16:35;;;;;;;2.10;1.90;;;25.10;35.70;;;;;;10393476;28;20225;-79
2022/08/22 09:22:05;;;;;;;3.73;2.20;;;25.30;35.00;;;;;;10397568;28;20715;-78
2022/08/22 09:27:22;;;;;;;2.50;2.00;;;25.60;33.60;;;;;;10383950;28;20249;-78
2022/08/22 09:32:42;;;;;;;2.07;1.90;;;25.70;34.40;;;;;;10396075;28;20715;-79
2022/08/22 09:37:58;;;;;;;1.43;1.33;;;25.80;33.20;;;;;;10391432;28;20695;-77
2022/08/22 09:43:08;;;;;;;1.70;1.60;;;26.00;32.30;;;;;;10398379;28;20288;-79
2022/08/22 09:48:30;;;;;;;3.40;1.70;;;26.10;31.50;;;;;;10398413;28;20232;-80
2022/08/22 09:53:56;;;;;;;1.77;1.67;;;26.30;30.90;;;;;;10395626;28;20226;-77
2022/08/22 09:59:03;;;;;;;2.27;1.63;;;26.50;30.00;;;;;;10394724;28;20974;-77
2022/08/22 10:04:42;;;;;;;1.87;1.60;;;26.60;30.50;;;;;;10395883;28;20696;-77
2022/08/22 10:09:56;;;;;;;3.13;1.70;;;26.70;29.60;;;;;;10398390;28;20226;-78
2022/08/22 10:15:16;;;;;;;2.30;1.83;;;26.80;29.50;;;;;;10398388;28;20478;-77
2022/08/22 10:20:28;;;;;;;3.87;1.80;;;26.90;29.20;;;;;;10399325;28;20237;-77
2022/08/22 10:25:40;;;;;;;2.00;1.80;;;27.00;29.70;;;;;;10401037;28;20249;-77
2022/08/22 10:30:56;;;;;;;2.53;1.97;;;27.20;28.40;;;;;;10398051;28;20225;-77
2022/08/22 10:36:09;;;;;;;5.63;1.80;;;27.30;28.50;;;;;;10398775;28;20722;-76
2022/08/22 10:41:24;;;;;;;2.73;2.00;;;27.40;27.90;;;;;;10395530;28;20230;-76
2022/08/22 10:46:34;;;;;;;2.17;1.70;;;27.40;28.00;;;;;;10399494;28;20230;-76
2022/08/22 10:51:46;;;;;;;2.57;2.00;;;27.50;27.90;;;;;;10391629;28;20222;-77
2022/08/22 10:56:55;;;;;;;2.10;1.90;;;27.60;27.60;;;;;;10397400;28;20226;-77
2022/08/22 11:02:21;;;;;;;3.53;2.10;;;27.80;28.10;;;;;;10394557;28;20256;-77
2022/08/22 11:07:48;;;;;;;1.77;1.63;;;27.90;27.70;;;;;;10393664;28;20656;-76
2022/08/22 11:13:05;;;;;;;2.57;2.00;;;28.00;28.20;;;;;;10394024;28;20229;-76
2022/08/22 11:18:19;;;;;;;2.57;1.90;;;28.10;26.60;;;;;;10395785;28;20225;-76
2022/08/22 11:23:36;;;;;;;3.00;1.67;;;28.10;26.60;;;;;;10396260;28;20233;-76
2022/08/22 11:28:59;;;;;;;2.33;1.87;;;28.00;26.50;;;;;;10396066;28;20225;-76
2022/08/22 11:34:31;;;;;;;2.13;1.90;;;28.00;25.30;;;;;;10395676;28;20711;-75
2022/08/22 11:39:43;;;;;;;2.27;1.80;;;28.00;25.90;;;;;;10392516;28;20240;-76
2022/08/22 11:44:54;;;;;;;2.37;1.70;;;28.00;25.80;;;;;;10393248;28;20227;-75
2022/08/22 11:50:02;;;;;;;1.90;1.67;;;28.00;26.20;;;;;;10390852;28;20292;-75
2022/08/22 11:55:31;;;;;;;2.60;1.70;;;28.10;26.60;;;;;;10393970;28;20298;-75
2022/08/22 12:00:48;;;;;;;1.97;1.80;;;28.10;26.10;;;;;;10390853;28;20226;-76
2022/08/22 12:05:55;;;;;;;4.10;1.83;;;28.00;25.50;;;;;;10401154;28;20226;-76
2022/08/22 12:11:07;;;;;;;1.60;1.50;;;28.00;26.30;;;;;;10395853;28;20234;-76
2022/08/22 12:16:16;;;;;;;1.67;1.57;;;27.90;25.70;;;;;;10391002;28;20279;-76
2022/08/22 12:21:45;;;;;;;1.80;1.50;;;28.00;25.60;;;;;;10378864;28;20595;-76
2022/08/22 12:27:15;;;;;;;1.70;1.60;;;28.00;25.80;;;;;;10376872;28;20231;-76
2022/08/22 12:33:13;;;;;;;3.07;1.60;;;28.00;24.90;;;;;;10389554;28;20261;-76
2022/08/22 12:38:35;;;;;;;2.13;1.40;;;27.90;25.40;;;;;;10391760;28;20224;-75
2022/08/22 12:43:52;;;;;;;2.90;1.40;;;27.90;24.60;;;;;;10394501;28;20720;-75
2022/08/22 12:49:15;;;;;;;2.73;1.50;;;27.90;24.40;;;;;;10391546;28;20243;-75
2022/08/22 12:54:45;;;;;;;1.30;1.20;;;27.90;24.60;;;;;;10389992;28;20265;-75
2022/08/22 12:59:53;;;;;;;2.30;1.50;;;27.90;24.80;;;;;;10395164;28;20240;-75
2022/08/22 13:05:09;;;;;;;1.57;1.40;;;27.90;24.30;;;;;;10399075;28;20224;-76
2022/08/22 13:10:44;;;;;;;1.40;1.30;;;27.90;24.50;;;;;;10395293;28;20232;-75
2022/08/22 13:15:56;;;;;;;1.43;1.33;;;27.90;24.00;;;;;;10393514;28;20622;-76
2022/08/22 13:21:03;;;;;;;2.00;1.60;;;27.90;23.00;;;;;;10385306;28;20709;-76
2022/08/22 13:26:11;;;;;;;1.60;1.50;;;27.90;23.20;;;;;;10385230;28;20782;-76
2022/08/22 13:31:37;;;;;;;2.33;1.30;;;27.90;23.10;;;;;;10394289;28;20237;-76
2022/08/22 13:36:44;;;;;;;1.47;1.37;;;27.90;23.30;;;;;;10400021;28;20581;-76
2022/08/22 13:41:57;;;;;;;2.30;1.50;;;27.90;24.00;;;;;;10387471;28;20288;-76
2022/08/22 13:47:08;;;;;;;4.53;1.80;;;27.90;23.70;;;;;;10399643;28;20225;-75
2022/08/22 13:52:27;;;;;;;1.50;1.40;;;28.00;22.90;;;;;;10396496;28;20240;-76
2022/08/22 13:57:37;;;;;;;2.43;1.47;;;28.00;23.10;;;;;;10394282;28;20218;-76
2022/08/22 14:02:58;;;;;;;1.90;1.60;;;28.00;23.30;;;;;;10402657;28;20225;-76
2022/08/22 14:08:13;;;;;;;2.17;1.77;;;28.10;23.50;;;;;;10390349;28;20226;-76
2022/08/22 14:13:35;;;;;;;1.90;1.60;;;28.10;23.30;;;;;;10395010;28;20291;-77
2022/08/22 14:18:47;;;;;;;2.03;1.73;;;28.00;23.50;;;;;;10389011;28;20229;-77
2022/08/22 14:23:52;;;;;;;3.13;1.60;;;28.10;23.40;;;;;;10400233;28;20887;-77
2022/08/22 14:29:00;;;;;;;1.97;1.63;;;28.20;23.80;;;;;;10390506;28;20224;-77
2022/08/22 14:34:10;;;;;;;1.93;1.60;;;28.20;23.00;;;;;;10397185;28;20914;-77
2022/08/22 14:39:22;;;;;;;2.27;1.53;;;28.20;23.20;;;;;;10401148;28;20225;-78
2022/08/22 14:44:29;;;;;;;1.50;1.40;;;28.20;22.40;;;;;;10396494;28;20308;-78
2022/08/22 14:49:50;;;;;;;1.70;1.60;;;28.20;22.60;;;;;;10398242;28;20233;-85
2022/08/22 14:55:21;;;;;;;1.50;1.40;;;28.30;22.40;;;;;;10397085;28;20225;-77
2022/08/22 15:00:28;;;;;;;1.93;1.70;;;28.30;22.20;;;;;;10390822;28;20707;-77
2022/08/22 15:05:42;;;;;;;1.97;1.77;;;28.30;23.20;;;;;;10401971;28;20230;-78
2022/08/22 15:10:48;;;;;;;2.00;1.90;;;28.40;22.80;;;;;;10397329;28;20605;-82
2022/08/22 15:15:52;;;;;;;1.87;1.77;;;28.30;23.50;;;;;;10400809;28;20222;-80
2022/08/22 15:21:06;;;;;;;1.77;1.60;;;28.30;23.10;;;;;;10405969;28;20260;-81
2022/08/22 15:26:19;;;;;;;1.80;1.70;;;28.20;22.50;;;;;;10405603;28;20226;-79
2022/08/22 15:31:24;;;;;;;2.07;1.87;;;28.10;22.60;;;;;;10406370;28;20234;-79
2022/08/22 15:36:30;;;;;;;1.90;1.73;;;28.00;23.20;;;;;;10400550;28;20241;-79
2022/08/22 15:42:24;;;;;;;1.70;1.57;;;28.00;23.10;;;;;;10393119;28;20233;-78
2022/08/22 15:47:34;;;;;;;1.93;1.67;;;27.90;22.40;;;;;;10389150;28;20245;-80
2022/08/22 16:04:17;;;;;;;2.07;1.57;;;27.50;23.00;;;;;;10626366;27;20603;-70
2022/08/22 16:09:38;;;;;;;2.30;1.60;;;27.50;23.10;;;;;;10625147;27;20575;-73
2022/08/22 16:14:59;;;;;;;3.40;1.77;;;27.40;22.80;;;;;;10616540;27;21165;-71
2022/08/22 16:20:51;;;;;;;2.30;1.70;;;27.40;22.70;;;;;;10634510;27;20706;-74
2022/08/22 16:26:18;;;;;;;2.43;1.70;;;27.30;22.90;;;;;;10615747;27;20677;-71
2022/08/22 16:56:31;;;;;;;1.40;1.30;;;27.30;22.90;;;;;;10624604;27;20221;-72
2022/08/22 17:01:55;;;;;;;3.93;1.40;;;27.30;22.80;;;;;;10626581;27;20821;-72
2022/08/22 17:07:31;;;;;;;1.40;1.30;;;27.40;22.30;;;;;;10595270;27;20989;-71
2022/08/22 17:13:13;;;;;;;1.37;1.30;;;27.50;21.90;;;;;;10628858;27;20234;-71
2022/08/22 17:18:40;;;;;;;1.17;1.17;;;27.40;21.90;;;;;;10584423;27;20234;-71
2022/08/22 17:23:56;;;;;;;1.43;1.20;;;27.50;21.00;;;;;;10583832;27;20210;-71
2022/08/22 17:29:12;;;;;;;1.87;1.03;;;27.40;20.50;;;;;;10599601;27;20222;-71
2022/08/22 17:34:30;;;;;;;1.20;1.00;;;27.40;20.70;;;;;;10589592;27;20312;-72
2022/08/22 17:39:54;;;;;;;1.40;1.30;;;27.40;21.10;;;;;;10593323;27;20229;-70
2022/08/22 17:45:09;;;;;;;1.30;1.20;;;27.10;21.00;;;;;;10609648;27;20218;-71
2022/08/22 17:50:22;;;;;;;1.20;1.10;;;27.10;21.20;;;;;;10589596;27;20337;-71
2022/08/22 17:55:32;;;;;;;1.40;1.23;;;27.00;21.10;;;;;;10590316;27;20227;-70
2022/08/22 18:00:42;;;;;;;1.30;1.20;;;26.90;22.00;;;;;;10611738;27;20225;-76
2022/08/22 18:05:54;;;;;;;1.20;1.20;;;26.90;22.30;;;;;;10587781;27;20229;-76
2022/08/22 18:11:53;;;;;;;2.67;1.30;;;26.80;22.60;;;;;;10611620;27;20218;-76
2022/08/22 18:16:59;;;;;;;1.43;1.33;;;26.80;22.60;;;;;;10579914;27;20755;-76
2022/08/22 18:22:11;;;;;;;1.57;1.30;;;26.70;23.00;;;;;;10591051;27;20301;-76
2022/08/22 18:27:25;;;;;;;1.37;1.20;;;26.70;23.40;;;;;;10588018;27;20670;-75
2022/08/22 18:38:52;;;;;;;1.40;1.30;;;26.40;24.00;;;;;;10586440;27;20595;-76
2022/08/22 18:44:10;;;;;;;1.97;1.30;;;26.30;23.80;;;;;;10605445;27;20233;-76
2022/08/22 18:49:40;;;;;;;2.63;1.60;;;26.10;24.20;;;;;;10588110;27;20245;-76
2022/08/22 18:55:06;;;;;;;2.90;1.50;;;25.90;24.60;;;;;;10592667;27;20318;-76
2022/08/22 19:00:15;;;;;;;1.60;1.50;;;25.70;25.00;;;;;;10593439;27;20219;-76
2022/08/22 19:05:45;;;;;;;1.60;1.50;;;25.60;25.30;;;;;;10585787;27;20755;-76
2022/08/22 19:11:03;;;;;;;1.67;1.57;;;25.40;25.20;;;;;;10576469;27;20221;-77
2022/08/22 19:16:32;;;;;;;1.53;1.40;;;25.20;25.40;;;;;;10584817;27;20246;-76
2022/08/22 19:22:21;;;;;;;1.90;1.80;;;25.00;25.60;;;;;;10599034;27;20222;-76
2022/08/22 19:27:28;;;;;;;2.43;1.83;;;24.80;25.60;;;;;;10586414;27;20290;-76
2022/08/22 19:33:10;;;;;;;1.60;1.50;;;24.70;25.80;;;;;;10585431;27;20260;-76
2022/08/22 19:38:55;;;;;;;1.50;1.40;;;24.60;26.00;;;;;;10592165;27;20317;-76
2022/08/22 19:43:58;;;;;;;2.37;1.67;;;24.40;26.00;;;;;;10590600;27;20334;-76
2022/08/22 19:49:03;;;;;;;2.70;1.80;;;24.30;25.90;;;;;;10581869;27;20247;-75
2022/08/22 19:54:19;;;;;;;1.50;1.40;;;24.10;26.20;;;;;;10586369;27;20307;-75
2022/08/22 19:59:31;;;;;;;1.60;1.40;;;24.00;26.80;;;;;;10585036;27;20324;-76
2022/08/22 20:05:00;;;;;;;1.53;1.43;;;23.80;26.80;;;;;;10586186;27;20230;-76
2022/08/22 20:10:16;;;;;;;1.70;1.57;;;23.70;27.20;;;;;;10588059;27;20524;-75
2022/08/22 20:15:23;;;;;;;2.43;1.60;;;23.60;27.40;;;;;;10582278;27;20214;-76
2022/08/22 20:20:58;;;;;;;2.60;1.70;;;23.50;27.10;;;;;;10585038;27;20226;-75
2022/08/22 20:26:03;;;;;;;2.17;1.30;;;23.40;27.50;;;;;;10586066;27;20460;-76
2022/08/22 20:31:18;;;;;;;1.37;1.03;;;23.30;27.60;;;;;;10586901;27;20253;-75
2022/08/22 20:36:24;;;;;;;1.30;1.20;;;23.20;27.50;;;;;;10589165;27;20239;-75
2022/08/22 20:41:35;;;;;;;2.80;1.70;;;23.00;27.90;;;;;;10587910;27;20233;-75
2022/08/22 20:46:49;;;;;;;1.50;1.40;;;22.90;27.70;;;;;;10596642;27;20302;-78
2022/08/22 20:51:59;;;;;;;3.17;1.60;;;22.80;28.20;;;;;;10593828;27;20226;-77
2022/08/22 20:57:14;;;;;;;1.83;1.70;;;22.70;27.80;;;;;;10595424;27;20223;-76
2022/08/22 21:02:23;;;;;;;3.57;1.80;;;22.60;28.20;;;;;;10589727;27;20300;-77
2022/08/22 21:07:28;;;;;;;2.83;1.90;;;22.40;28.20;;;;;;10595425;27;20214;-77
2022/08/22 21:12:33;;;;;;;3.73;2.10;;;22.40;28.20;;;;;;10595438;27;20317;-77
2022/08/22 21:17:38;;;;;;;2.40;1.87;;;22.20;28.40;;;;;;10592272;27;20750;-77
2022/08/22 21:22:47;;;;;;;2.23;1.87;;;22.10;28.40;;;;;;10590876;27;20227;-77
2022/08/22 21:27:54;;;;;;;2.17;1.73;;;21.90;28.50;;;;;;10595232;27;20217;-77
2022/08/22 21:32:57;;;;;;;2.10;1.70;;;21.90;29.00;;;;;;10598545;27;20227;-77
2022/08/22 21:38:01;;;;;;;1.73;1.60;;;21.80;28.60;;;;;;10593699;27;20334;-76
2022/08/22 21:43:11;;;;;;;1.50;1.40;;;21.60;28.50;;;;;;10598596;27;20222;-75
2022/08/22 21:48:37;;;;;;;2.83;1.80;;;21.50;29.20;;;;;;10597072;27;20218;-78
2022/08/22 21:53:44;;;;;;;2.80;2.50;;;21.40;29.30;;;;;;10583269;27;20253;-76
2022/08/22 21:58:48;;;;;;;4.10;2.60;;;21.30;28.90;;;;;;10591832;27;20218;-76
2022/08/22 22:03:53;;;;;;;3.40;2.83;;;21.10;29.30;;;;;;10589378;27;20329;-76
2022/08/22 22:08:57;;;;;;;4.00;3.10;;;21.00;29.30;;;;;;10593266;27;20218;-79
2022/08/22 22:14:01;;;;;;;3.03;2.50;;;20.90;29.60;;;;;;10584927;27;20230;-73
2022/08/22 22:19:08;;;;;;;3.57;2.20;;;20.80;29.90;;;;;;10603378;27;20262;-73
2022/08/22 22:24:12;;;;;;;2.57;2.17;;;20.70;30.00;;;;;;10606242;27;20226;-77
2022/08/22 22:29:17;;;;;;;2.20;2.03;;;20.60;29.90;;;;;;10584253;27;20215;-77
2022/08/22 22:34:22;;;;;;;2.00;1.90;;;20.40;30.20;;;;;;10585807;27;20222;-72
2022/08/22 22:39:25;;;;;;;3.40;2.03;;;20.20;30.00;;;;;;10585205;27;20271;-72
2022/08/22 22:44:30;;;;;;;1.80;1.70;;;20.20;30.20;;;;;;10587888;27;20214;-72
2022/08/22 22:49:36;;;;;;;1.73;1.63;;;20.20;30.80;;;;;;10590005;27;20231;-77
2022/08/22 22:54:40;;;;;;;2.03;1.90;;;20.20;30.50;;;;;;10591314;27;20245;-77
2022/08/22 22:59:46;;;;;;;2.57;1.90;;;20.20;30.50;;;;;;10588999;27;20796;-78
2022/08/22 23:04:55;;;;;;;2.10;1.97;;;20.20;30.80;;;;;;10592764;27;20705;-79
2022/08/22 23:09:58;;;;;;;1.90;1.80;;;20.20;31.00;;;;;;10589490;27;20210;-79
2022/08/22 23:15:05;;;;;;;2.20;1.70;;;20.20;30.40;;;;;;10588362;27;20219;-78
2022/08/22 23:20:09;;;;;;;1.90;1.80;;;20.20;31.20;;;;;;10587422;27;20232;-77
2022/08/22 23:25:13;;;;;;;2.30;2.10;;;20.10;30.80;;;;;;10582698;27;20596;-78
2022/08/22 23:30:17;;;;;;;2.20;2.00;;;20.10;30.90;;;;;;10580259;27;20222;-78
2022/08/22 23:35:23;;;;;;;1.90;1.80;;;20.10;31.20;;;;;;10588085;27;20593;-79
2022/08/22 23:40:27;;;;;;;1.90;1.80;;;20.00;31.40;;;;;;10593723;27;20222;-78
2022/08/22 23:45:32;;;;;;;1.93;1.80;;;20.00;30.90;;;;;;10588488;27;20227;-77
2022/08/22 23:50:38;;;;;;;1.50;1.40;;;20.00;31.60;;;;;;10585131;27;20219;-78
2022/08/22 23:55:44;;;;;;;2.20;2.00;;;20.00;30.90;;;;;;10590083;27;20313;-77
